Terminal Aerodrome Forecast
Issued by NWS Indianapolis, IN

Home | Current Version | Previous Version | Text Only | Print | Product List | Glossary On
Versions: 1 2 3 4 5 6 7 8 9 10 11 12 13 14 15 16 17 18 19 20 21 22 23 24 25
000
FTUS43 KIND 291400 AAA
TAFIND
TAF AMD
KIND 291419Z 2914/3018 17013KT P6SM BKN200
     FM291600 18017G25KT P6SM BKN150
     FM292000 19018G28KT P6SM -RA BKN040 OVC080
     FM292300 21014G22KT P6SM BKN040 OVC080 PROB30 2923/3004 -SHRA
     FM300400 28012KT P6SM OVC025
     FM301400 28011KT P6SM SCT250=

USA.gov is the U.S. government's official web portal to all federal, state and local government web resources and services.